Time;durP1;ratioP1;P1;durP2;ratioP2;P2;SDS_P1;SDS_P2;PMS_P1;PMS_P2;Temp;Humidity;BMP_temperature;BMP_pressure;BME280_temperature;BME280_humidity;BME280_pressure;Samples;Min_cycle;Max_cycle;Signal;HPM_P1;HPM_P2
2021/08/09 00:00:15;;;;;;;34.60;28.17;;;15.00;99.90;;;;;;6191760;23;20329;-78
2021/08/09 00:02:40;;;;;;;29.45;26.25;;;15.00;99.90;;;;;;6193078;23;20133;-79
2021/08/09 00:05:07;;;;;;;36.33;25.75;;;14.90;99.90;;;;;;6192282;23;20143;-79
2021/08/09 00:07:33;;;;;;;22.77;20.02;;;14.90;99.90;;;;;;6159466;23;20421;-79
2021/08/09 00:09:58;;;;;;;31.55;26.85;;;14.90;99.90;;;;;;6181310;23;20017;-79
2021/08/09 00:12:24;;;;;;;43.72;33.30;;;14.90;99.90;;;;;;6155467;23;20028;-79
2021/08/09 00:14:50;;;;;;;29.15;23.75;;;14.90;99.90;;;;;;6192200;23;20054;-79
2021/08/09 00:17:16;;;;;;;32.72;23.67;;;14.90;99.90;;;;;;6192120;23;20016;-78
2021/08/09 00:19:42;;;;;;;33.95;25.95;;;14.80;99.90;;;;;;6155757;23;20016;-78
2021/08/09 00:22:08;;;;;;;41.10;35.75;;;14.80;99.90;;;;;;6182030;23;20374;-78
2021/08/09 00:24:34;;;;;;;28.30;24.02;;;14.80;99.90;;;;;;6154497;23;20028;-78
2021/08/09 00:27:00;;;;;;;40.13;32.13;;;14.90;99.90;;;;;;6182268;23;20092;-80
2021/08/09 00:29:26;;;;;;;43.75;34.78;;;14.90;99.90;;;;;;6165361;23;20027;-80
2021/08/09 00:31:52;;;;;;;33.95;25.00;;;14.80;99.90;;;;;;6191643;23;20088;-79
2021/08/09 00:34:19;;;;;;;36.28;29.58;;;14.80;99.90;;;;;;6182189;23;20063;-79
2021/08/09 00:36:46;;;;;;;37.53;28.98;;;14.80;99.90;;;;;;6192012;23;20364;-78
2021/08/09 00:39:12;;;;;;;25.65;18.48;;;14.80;99.90;;;;;;6181010;23;20013;-79
2021/08/09 00:41:38;;;;;;;32.45;27.10;;;14.80;99.90;;;;;;6184612;23;20047;-77
2021/08/09 00:44:04;;;;;;;39.25;31.08;;;14.80;99.90;;;;;;6191869;23;20029;-78
2021/08/09 00:46:31;;;;;;;24.50;20.02;;;14.70;99.90;;;;;;6192437;23;20441;-79
2021/08/09 00:48:58;;;;;;;33.78;22.88;;;14.80;99.90;;;;;;6130717;23;20021;-79
2021/08/09 00:51:25;;;;;;;39.90;34.10;;;14.70;99.90;;;;;;6165630;23;20012;-79
2021/08/09 00:53:51;;;;;;;34.15;22.58;;;14.70;99.90;;;;;;6180930;23;20087;-78
2021/08/09 00:56:18;;;;;;;28.05;20.10;;;14.70;99.90;;;;;;6186002;23;20441;-78
2021/08/09 00:58:43;;;;;;;28.77;20.98;;;14.70;99.90;;;;;;6181363;23;20013;-78
2021/08/09 01:01:09;;;;;;;32.53;27.77;;;14.70;99.90;;;;;;6155349;23;20013;-78
2021/08/09 01:03:35;;;;;;;26.73;24.02;;;14.70;99.90;;;;;;6155551;23;20015;-79
2021/08/09 01:06:01;;;;;;;32.83;29.60;;;14.70;99.90;;;;;;6155714;23;20044;-78
2021/08/09 01:08:44;;;;;;;35.13;29.90;;;14.60;99.90;;;;;;6153763;23;20021;-78
2021/08/09 01:11:23;;;;;;;19.95;18.08;;;14.60;99.90;;;;;;6181941;23;20017;-79
2021/08/09 01:14:19;;;;;;;33.70;30.65;;;14.60;99.90;;;;;;6164866;23;20013;-78
2021/08/09 01:16:45;;;;;;;31.63;28.35;;;14.60;99.90;;;;;;6160970;23;20036;-78
2021/08/09 01:19:39;;;;;;;33.33;29.80;;;14.60;99.90;;;;;;6164837;23;20428;-79
2021/08/09 01:22:38;;;;;;;26.05;20.77;;;14.60;99.90;;;;;;6155446;23;20381;-79
2021/08/09 01:25:22;;;;;;;32.63;25.65;;;14.50;99.90;;;;;;6129996;23;20025;-79
2021/08/09 01:27:50;;;;;;;30.40;24.52;;;14.50;99.90;;;;;;6191383;23;20331;-79
2021/08/09 01:30:18;;;;;;;24.55;19.25;;;14.50;99.90;;;;;;6155212;23;20418;-79
2021/08/09 01:32:45;;;;;;;27.33;20.52;;;14.50;99.90;;;;;;6192239;23;20009;-79
2021/08/09 01:35:13;;;;;;;28.92;21.85;;;14.50;99.90;;;;;;6166252;23;20017;-79
2021/08/09 01:37:43;;;;;;;38.38;27.65;;;14.50;99.90;;;;;;6142100;23;20013;-80
2021/08/09 01:40:10;;;;;;;32.72;29.30;;;14.40;99.90;;;;;;6132262;23;20013;-80
2021/08/09 01:42:37;;;;;;;36.72;27.63;;;14.40;99.90;;;;;;6193438;23;20460;-80
2021/08/09 01:45:05;;;;;;;32.05;22.17;;;14.40;99.90;;;;;;6193791;23;20017;-79
2021/08/09 01:47:34;;;;;;;26.55;22.85;;;14.40;99.90;;;;;;6193675;23;20079;-79
2021/08/09 01:50:01;;;;;;;29.42;26.38;;;14.40;99.90;;;;;;6133373;23;20370;-79
2021/08/09 01:52:29;;;;;;;27.75;24.85;;;14.40;99.90;;;;;;6132436;23;20092;-79
2021/08/09 01:54:55;;;;;;;42.92;38.10;;;14.50;99.90;;;;;;6155946;23;20013;-79
2021/08/09 01:57:24;;;;;;;33.88;24.10;;;14.40;99.90;;;;;;6157749;23;20128;-79
2021/08/09 01:59:50;;;;;;;32.47;23.83;;;14.50;99.90;;;;;;6183070;23;20021;-80
2021/08/09 02:02:30;;;;;;;28.70;23.10;;;14.50;99.90;;;;;;6193192;23;20019;-80
2021/08/09 02:05:03;;;;;;;42.92;33.85;;;14.40;99.90;;;;;;6192873;23;20043;-80
2021/08/09 02:07:29;;;;;;;47.60;42.08;;;14.40;99.90;;;;;;6186267;23;20020;-80
2021/08/09 02:09:54;;;;;;;37.42;23.13;;;14.40;99.90;;;;;;6191998;23;20397;-80
2021/08/09 02:12:20;;;;;;;44.42;30.73;;;14.40;99.90;;;;;;6157082;23;20095;-80
2021/08/09 02:14:51;;;;;;;45.50;40.33;;;14.40;99.90;;;;;;6182984;23;20017;-80
2021/08/09 02:17:21;;;;;;;31.50;19.65;;;14.50;99.90;;;;;;6131403;23;20497;-80
2021/08/09 02:19:53;;;;;;;37.72;28.50;;;14.50;99.90;;;;;;6155907;23;20017;-80
2021/08/09 02:22:28;;;;;;;37.90;25.48;;;14.40;99.90;;;;;;6192838;23;20013;-80
2021/08/09 02:25:08;;;;;;;37.20;27.70;;;14.40;99.90;;;;;;6158001;23;20445;-80
2021/08/09 02:27:48;;;;;;;25.52;15.63;;;14.40;99.90;;;;;;6162832;23;20044;-80
2021/08/09 02:30:18;;;;;;;34.20;21.27;;;14.40;99.90;;;;;;6163189;23;20136;-80
2021/08/09 02:32:45;;;;;;;41.03;31.20;;;14.40;99.90;;;;;;6162625;23;20045;-80
2021/08/09 02:35:15;;;;;;;31.38;24.02;;;14.40;99.90;;;;;;6151244;23;20028;-80
2021/08/09 02:37:43;;;;;;;45.10;30.83;;;14.30;99.90;;;;;;6126058;23;20079;-80
2021/08/09 02:40:12;;;;;;;31.10;19.65;;;14.30;99.90;;;;;;6126315;23;20084;-80
2021/08/09 02:42:39;;;;;;;39.28;24.17;;;14.30;99.90;;;;;;6151239;23;20028;-80
2021/08/09 02:45:06;;;;;;;38.25;31.63;;;14.30;99.90;;;;;;6153148;23;20021;-79
2021/08/09 02:47:33;;;;;;;42.30;31.13;;;14.40;99.90;;;;;;6152761;23;20015;-80
2021/08/09 02:50:00;;;;;;;38.50;29.10;;;14.30;99.90;;;;;;6162967;23;20017;-80
2021/08/09 02:52:27;;;;;;;35.92;25.20;;;14.40;99.90;;;;;;6151224;23;20047;-80
2021/08/09 02:54:53;;;;;;;26.20;21.23;;;14.40;99.90;;;;;;6151765;23;20024;-80
2021/08/09 02:57:23;;;;;;;36.33;20.60;;;14.50;99.90;;;;;;6153056;23;20064;-80
2021/08/09 02:59:49;;;;;;;39.15;27.58;;;14.40;99.90;;;;;;6162666;23;20013;-80
2021/08/09 03:02:16;;;;;;;40.63;34.10;;;14.40;99.90;;;;;;6152634;23;20009;-80
2021/08/09 03:04:44;;;;;;;38.78;29.02;;;14.50;99.90;;;;;;6160577;23;20488;-80
2021/08/09 03:07:10;;;;;;;42.63;30.83;;;14.40;99.90;;;;;;6152932;23;20092;-80
2021/08/09 03:09:37;;;;;;;43.65;33.88;;;14.40;99.90;;;;;;6162149;23;20024;-80
2021/08/09 03:12:05;;;;;;;41.72;30.25;;;14.40;99.90;;;;;;6155286;23;20080;-80
2021/08/09 03:14:33;;;;;;;41.72;30.50;;;14.50;99.90;;;;;;6162583;23;20017;-80
2021/08/09 03:17:03;;;;;;;40.20;31.17;;;14.50;99.90;;;;;;6162875;23;20017;-80
2021/08/09 03:19:29;;;;;;;42.05;34.95;;;14.40;99.90;;;;;;6161156;23;20092;-80
2021/08/09 03:21:58;;;;;;;40.75;32.05;;;14.50;99.90;;;;;;6153039;23;20064;-80
2021/08/09 03:24:26;;;;;;;56.15;46.17;;;14.50;99.90;;;;;;6162375;23;20056;-80
2021/08/09 03:26:51;;;;;;;49.15;42.33;;;14.50;99.90;;;;;;6192362;23;20005;-81
2021/08/09 03:29:17;;;;;;;42.35;28.80;;;14.60;99.90;;;;;;6166236;23;20058;-81
2021/08/09 03:31:43;;;;;;;46.80;37.35;;;14.60;99.90;;;;;;6192510;23;20009;-81
2021/08/09 03:34:09;;;;;;;53.08;45.03;;;14.60;99.90;;;;;;6182472;23;20413;-80
2021/08/09 03:36:37;;;;;;;56.28;50.25;;;14.60;99.90;;;;;;6192664;23;20020;-80
2021/08/09 03:39:02;;;;;;;59.97;53.03;;;14.60;99.90;;;;;;6165159;23;20013;-79
2021/08/09 03:41:28;;;;;;;44.80;31.90;;;14.60;99.90;;;;;;6192637;23;20013;-80
2021/08/09 03:43:55;;;;;;;53.60;44.10;;;14.50;99.90;;;;;;6192527;23;20016;-80
2021/08/09 03:46:20;;;;;;;52.45;44.35;;;14.50;99.90;;;;;;6192199;23;20496;-80
2021/08/09 03:48:46;;;;;;;43.42;35.55;;;14.50;99.90;;;;;;6192403;23;20373;-81
2021/08/09 03:51:12;;;;;;;41.22;30.42;;;14.50;99.90;;;;;;6156426;23;20020;-80
2021/08/09 03:53:38;;;;;;;39.60;33.17;;;14.50;99.90;;;;;;6191596;23;20013;-80
2021/08/09 03:56:05;;;;;;;47.92;40.25;;;14.50;99.90;;;;;;6162845;23;20016;-80
2021/08/09 03:58:31;;;;;;;55.70;42.85;;;14.50;99.90;;;;;;6191723;23;20100;-80
2021/08/09 04:00:57;;;;;;;56.05;49.92;;;14.50;99.90;;;;;;6192380;23;20331;-80
2021/08/09 04:03:23;;;;;;;54.53;48.88;;;14.50;99.90;;;;;;6182188;23;20021;-80
2021/08/09 04:05:49;;;;;;;42.63;32.65;;;14.40;99.90;;;;;;6192453;23;20071;-80
2021/08/09 04:08:14;;;;;;;51.90;40.58;;;14.50;99.90;;;;;;6181113;23;20008;-80
2021/08/09 04:10:40;;;;;;;45.85;36.33;;;14.50;99.90;;;;;;6164439;23;20028;-80
2021/08/09 04:13:07;;;;;;;48.60;36.55;;;14.60;99.90;;;;;;6192719;23;20104;-80
2021/08/09 04:15:32;;;;;;;58.72;49.13;;;14.40;99.90;;;;;;6155722;23;20020;-80
2021/08/09 04:18:01;;;;;;;48.97;39.90;;;14.40;99.90;;;;;;6192612;23;20020;-80
2021/08/09 04:20:28;;;;;;;48.38;36.28;;;14.40;99.90;;;;;;6192145;23;20013;-80
2021/08/09 04:22:54;;;;;;;51.75;42.17;;;14.40;99.90;;;;;;6191919;23;20024;-80
2021/08/09 04:25:20;;;;;;;46.60;34.58;;;14.40;99.90;;;;;;6186971;23;20051;-80
2021/08/09 04:27:47;;;;;;;52.42;37.35;;;14.40;99.90;;;;;;6155663;23;20031;-80
2021/08/09 04:30:13;;;;;;;53.97;47.88;;;14.40;99.90;;;;;;6180521;23;20013;-80
2021/08/09 04:32:41;;;;;;;44.55;39.05;;;14.50;99.90;;;;;;6192078;23;20013;-80
2021/08/09 04:35:08;;;;;;;59.70;44.85;;;14.50;99.90;;;;;;6191785;23;20067;-80
2021/08/09 04:37:34;;;;;;;43.55;35.35;;;14.50;99.90;;;;;;6192007;23;20013;-80
2021/08/09 04:40:00;;;;;;;55.70;50.05;;;14.50;99.90;;;;;;6191265;23;20035;-80
2021/08/09 04:42:27;;;;;;;43.50;31.35;;;14.50;99.90;;;;;;6155983;23;20453;-81
2021/08/09 04:44:53;;;;;;;41.83;33.10;;;14.50;99.90;;;;;;6191583;23;20021;-80
2021/08/09 04:47:19;;;;;;;44.55;34.75;;;14.50;99.90;;;;;;6191644;23;20040;-80
2021/08/09 04:49:45;;;;;;;39.40;34.47;;;14.50;99.90;;;;;;6191565;23;20382;-80
2021/08/09 04:52:10;;;;;;;48.10;43.05;;;14.80;99.90;;;;;;6154809;23;20112;-81
2021/08/09 04:54:36;;;;;;;38.80;27.83;;;15.00;99.90;;;;;;6178209;23;20013;-80
2021/08/09 04:57:02;;;;;;;45.45;39.17;;;15.20;99.90;;;;;;6184403;23;20047;-80
2021/08/09 04:59:28;;;;;;;43.28;38.92;;;15.40;99.90;;;;;;6190953;23;20017;-82
2021/08/09 05:01:54;;;;;;;44.45;32.40;;;15.60;99.90;;;;;;6154378;23;20015;-79
2021/08/09 05:04:20;;;;;;;41.72;35.33;;;15.70;99.90;;;;;;6182001;23;20024;-78
2021/08/09 05:06:47;;;;;;;48.78;38.28;;;15.70;99.90;;;;;;6155414;23;20388;-78
2021/08/09 05:09:13;;;;;;;47.95;37.03;;;15.80;99.90;;;;;;6154299;23;20381;-79
2021/08/09 05:11:39;;;;;;;57.28;49.35;;;15.90;99.90;;;;;;6181661;23;20037;-79
2021/08/09 05:14:08;;;;;;;67.60;60.55;;;15.90;99.90;;;;;;6193187;23;20088;-79
2021/08/09 05:16:36;;;;;;;44.60;37.40;;;16.00;99.90;;;;;;6157019;23;20033;-79
2021/08/09 05:19:04;;;;;;;54.58;48.63;;;15.90;99.90;;;;;;6166296;23;20120;-79
2021/08/09 05:21:35;;;;;;;63.70;56.92;;;15.80;99.90;;;;;;6143699;23;20029;-83
2021/08/09 05:24:02;;;;;;;56.97;51.20;;;15.90;99.90;;;;;;6192799;23;20083;-80
2021/08/09 05:26:29;;;;;;;85.70;72.63;;;15.90;99.90;;;;;;6158019;23;20043;-82
2021/08/09 05:28:55;;;;;;;80.65;69.43;;;16.10;99.90;;;;;;6194073;23;20013;-81
2021/08/09 05:31:24;;;;;;;48.22;41.75;;;16.00;99.90;;;;;;6157140;23;20017;-79
2021/08/09 05:33:50;;;;;;;71.57;63.55;;;16.00;99.90;;;;;;6193749;23;20063;-78
2021/08/09 05:36:15;;;;;;;62.90;56.35;;;16.10;99.90;;;;;;6157430;23;20750;-80
2021/08/09 05:38:41;;;;;;;66.53;59.40;;;16.00;99.90;;;;;;6156522;23;20087;-81
2021/08/09 05:41:07;;;;;;;34.22;22.58;;;15.90;99.90;;;;;;6191465;23;20009;-81
2021/08/09 05:43:33;;;;;;;67.70;60.53;;;16.00;99.90;;;;;;6183805;23;20013;-80
2021/08/09 05:46:00;;;;;;;60.70;53.33;;;15.90;99.90;;;;;;6194048;23;20020;-81
2021/08/09 05:48:29;;;;;;;45.50;40.80;;;15.90;99.90;;;;;;6182647;23;20695;-81
2021/08/09 05:50:55;;;;;;;70.07;62.50;;;16.00;99.90;;;;;;6156561;23;20456;-81
2021/08/09 05:53:21;;;;;;;58.60;52.15;;;15.90;99.90;;;;;;6193174;23;20024;-79
2021/08/09 05:55:47;;;;;;;55.85;50.05;;;15.90;99.90;;;;;;6154681;23;20059;-78
2021/08/09 05:58:13;;;;;;;58.85;53.13;;;15.90;99.90;;;;;;6183098;23;20441;-77
2021/08/09 06:00:39;;;;;;;84.45;75.38;;;16.10;99.90;;;;;;6183518;23;20483;-82
2021/08/09 06:03:05;;;;;;;84.25;75.63;;;15.90;99.90;;;;;;6183081;23;20009;-82
2021/08/09 06:05:31;;;;;;;75.47;66.35;;;15.80;99.90;;;;;;6132104;23;20021;-83
2021/08/09 06:07:57;;;;;;;77.70;68.47;;;15.60;99.90;;;;;;6156785;23;20700;-83
2021/08/09 06:10:22;;;;;;;78.07;68.15;;;15.50;99.90;;;;;;6156649;23;20453;-82
2021/08/09 06:12:49;;;;;;;61.65;49.72;;;15.50;99.90;;;;;;6157081;23;20452;-83
2021/08/09 06:15:14;;;;;;;76.15;62.60;;;15.50;99.90;;;;;;6166967;23;20337;-82
2021/08/09 06:17:40;;;;;;;92.50;79.13;;;15.50;99.90;;;;;;6166870;23;20023;-82
2021/08/09 06:20:07;;;;;;;61.67;51.55;;;15.40;99.90;;;;;;6183593;23;20437;-82
2021/08/09 06:22:33;;;;;;;99.18;83.50;;;15.50;99.90;;;;;;6157501;23;20016;-80
2021/08/09 06:24:58;;;;;;;86.95;77.38;;;15.60;99.90;;;;;;6189778;23;20017;-82
2021/08/09 06:27:57;;;;;;;61.42;47.70;;;15.40;99.90;;;;;;6156416;23;20036;-83
2021/08/09 06:30:22;;;;;;;76.22;64.75;;;15.40;99.90;;;;;;6183537;23;20040;-84
2021/08/09 06:32:48;;;;;;;98.53;85.82;;;15.50;99.90;;;;;;6167106;23;20009;-85
2021/08/09 06:35:14;;;;;;;67.72;60.65;;;15.50;99.90;;;;;;6157027;23;20259;-82
2021/08/09 06:37:41;;;;;;;86.03;76.90;;;15.50;99.90;;;;;;6183165;23;20021;-83
2021/08/09 06:40:07;;;;;;;69.07;57.83;;;15.40;99.90;;;;;;6156253;23;20016;-83
2021/08/09 06:42:33;;;;;;;64.32;53.78;;;15.60;99.90;;;;;;6157455;23;20488;-82
2021/08/09 06:44:59;;;;;;;58.35;47.03;;;15.70;99.90;;;;;;6193869;23;20099;-81
2021/08/09 06:47:26;;;;;;;73.53;66.07;;;15.70;99.90;;;;;;6183920;23;20072;-81
2021/08/09 06:49:52;;;;;;;50.70;44.00;;;15.70;99.90;;;;;;6193487;23;20455;-81
2021/08/09 06:52:20;;;;;;;58.42;52.35;;;15.90;99.90;;;;;;6193553;23;20017;-82
2021/08/09 06:54:46;;;;;;;86.45;77.70;;;16.10;99.90;;;;;;6182862;23;20047;-81
2021/08/09 06:57:12;;;;;;;45.22;38.85;;;16.20;99.90;;;;;;6187709;23;20009;-81
2021/08/09 06:59:38;;;;;;;98.88;82.88;;;16.30;99.90;;;;;;6193337;23;20009;-79
2021/08/09 07:02:04;;;;;;;82.68;74.60;;;16.50;99.90;;;;;;6155944;23;20084;-78
2021/08/09 07:04:30;;;;;;;80.70;69.88;;;16.40;99.90;;;;;;6156587;23;20088;-80
2021/08/09 07:06:56;;;;;;;100.20;76.60;;;16.40;99.90;;;;;;6183744;23;20067;-78
2021/08/09 07:09:21;;;;;;;60.58;54.08;;;16.50;99.90;;;;;;6182755;23;20064;-79
2021/08/09 07:11:48;;;;;;;56.40;49.08;;;16.40;99.90;;;;;;6131908;23;20052;-79
2021/08/09 07:14:18;;;;;;;98.70;87.82;;;16.40;99.90;;;;;;6183835;23;20064;-78
2021/08/09 07:16:44;;;;;;;111.97;99.85;;;16.40;99.90;;;;;;6193477;23;20092;-81
2021/08/09 07:19:11;;;;;;;88.03;66.65;;;16.50;99.90;;;;;;6193219;23;20047;-80
2021/08/09 07:21:37;;;;;;;78.97;70.40;;;16.60;99.90;;;;;;6167306;23;20509;-81
2021/08/09 07:24:03;;;;;;;55.97;41.55;;;16.60;99.90;;;;;;6156030;23;20043;-79
2021/08/09 07:26:29;;;;;;;89.70;79.50;;;16.60;99.90;;;;;;6132756;23;20055;-79
2021/08/09 07:28:55;;;;;;;91.53;81.50;;;16.60;99.90;;;;;;6157141;23;20024;-80
2021/08/09 07:31:21;;;;;;;78.90;70.40;;;16.70;99.90;;;;;;6183688;23;20017;-81
2021/08/09 07:33:47;;;;;;;77.35;65.57;;;16.70;99.90;;;;;;6167396;23;20382;-80
2021/08/09 07:36:14;;;;;;;81.43;72.80;;;16.60;99.90;;;;;;6167585;23;20032;-79
2021/08/09 07:38:39;;;;;;;67.03;59.60;;;16.80;99.90;;;;;;6155510;23;20017;-80
2021/08/09 07:41:05;;;;;;;104.05;81.72;;;16.80;99.90;;;;;;6132355;23;20091;-80
2021/08/09 07:43:32;;;;;;;93.50;77.03;;;16.80;99.90;;;;;;6131403;23;20052;-82
2021/08/09 07:45:58;;;;;;;129.68;99.90;;;16.90;99.90;;;;;;6156733;23;20122;-80
2021/08/09 07:48:24;;;;;;;103.20;84.75;;;17.00;99.90;;;;;;6192991;23;20013;-81
2021/08/09 07:50:50;;;;;;;136.32;111.13;;;17.00;99.90;;;;;;6193786;23;20019;-80
2021/08/09 07:53:16;;;;;;;118.97;98.85;;;17.10;99.90;;;;;;6181858;23;20013;-80
2021/08/09 07:55:41;;;;;;;138.80;105.10;;;17.20;99.90;;;;;;6165550;23;20016;-80
2021/08/09 07:58:07;;;;;;;128.48;101.60;;;17.20;99.90;;;;;;6156976;23;20159;-79
2021/08/09 08:00:33;;;;;;;120.82;99.05;;;17.20;99.90;;;;;;6131363;23;20285;-77
2021/08/09 08:03:00;;;;;;;123.15;100.22;;;17.20;99.90;;;;;;6132144;23;20025;-80
2021/08/09 08:05:26;;;;;;;104.47;92.68;;;17.20;99.90;;;;;;6132339;23;20017;-79
2021/08/09 08:08:00;;;;;;;162.00;134.85;;;17.30;99.90;;;;;;6156125;23;20065;-80
2021/08/09 08:10:41;;;;;;;138.55;123.53;;;17.40;99.90;;;;;;6158927;23;20321;-80
2021/08/09 08:13:07;;;;;;;126.30;100.88;;;17.40;99.90;;;;;;6157992;23;20436;-84
2021/08/09 08:15:32;;;;;;;103.30;82.07;;;17.30;99.90;;;;;;6156001;23;20088;-80
2021/08/09 08:17:58;;;;;;;100.30;85.05;;;17.30;99.90;;;;;;6155924;23;20025;-77
2021/08/09 08:20:26;;;;;;;154.40;117.57;;;17.30;99.90;;;;;;6155840;23;20448;-80
2021/08/09 08:22:53;;;;;;;142.95;102.53;;;17.30;99.90;;;;;;6155736;23;20036;-82
2021/08/09 08:25:19;;;;;;;128.15;109.93;;;17.40;99.90;;;;;;6188267;23;20028;-80
2021/08/09 08:27:44;;;;;;;143.98;116.18;;;17.40;99.90;;;;;;6155154;23;20107;-83
2021/08/09 08:30:12;;;;;;;110.32;82.90;;;17.40;99.90;;;;;;6193116;23;20377;-80
2021/08/09 08:32:38;;;;;;;122.95;108.95;;;17.70;99.90;;;;;;6157011;23;20013;-79
2021/08/09 08:35:04;;;;;;;152.35;109.88;;;17.80;99.90;;;;;;6131393;23;20043;-80
2021/08/09 08:37:30;;;;;;;118.90;95.45;;;17.90;99.90;;;;;;6183422;23;20016;-79
2021/08/09 08:39:55;;;;;;;136.23;114.85;;;18.00;99.90;;;;;;6193099;23;20298;-79
2021/08/09 08:42:21;;;;;;;139.00;106.32;;;18.10;99.90;;;;;;6183169;23;20017;-79
2021/08/09 08:44:47;;;;;;;127.57;99.97;;;18.30;99.90;;;;;;6168229;23;20391;-81
2021/08/09 08:47:17;;;;;;;117.72;89.60;;;18.60;99.90;;;;;;6186110;23;20017;-77
2021/08/09 08:49:44;;;;;;;156.82;130.45;;;18.70;99.90;;;;;;6158578;23;20028;-78
2021/08/09 08:52:10;;;;;;;122.97;96.22;;;19.00;99.90;;;;;;6158516;23;20085;-79
2021/08/09 08:54:39;;;;;;;128.38;99.65;;;19.10;99.90;;;;;;6157140;23;20097;-82
2021/08/09 08:57:14;;;;;;;132.27;105.50;;;19.20;99.90;;;;;;6168833;23;20415;-84
2021/08/09 08:59:39;;;;;;;;;;;19.10;99.90;;;;;;6196104;23;20079;-81
2021/08/09 09:02:06;;;;;;;142.05;117.70;;;19.00;99.90;;;;;;6195102;23;19947;-85
2021/08/09 09:04:33;;;;;;;105.28;77.65;;;19.20;99.90;;;;;;6159168;23;20013;-82
2021/08/09 09:07:01;;;;;;;104.80;80.57;;;19.30;99.90;;;;;;6158921;23;20017;-85
2021/08/09 09:09:29;;;;;;;87.53;73.30;;;19.30;99.90;;;;;;6194688;23;20063;-83
2021/08/09 09:11:54;;;;;;;120.32;89.25;;;19.40;99.90;;;;;;6192553;23;20013;-86
2021/08/09 09:14:31;;;;;;;126.50;100.53;;;19.40;99.90;;;;;;6157932;23;20017;-81
2021/08/09 09:16:58;;;;;;;134.10;104.80;;;19.40;99.90;;;;;;6185671;23;20016;-80
2021/08/09 09:19:35;;;;;;;137.32;108.50;;;19.60;99.90;;;;;;6185307;23;20013;-81
2021/08/09 09:22:21;;;;;;;155.90;120.15;;;19.70;99.90;;;;;;6134844;23;20299;-81
2021/08/09 09:24:54;;;;;;;173.65;130.40;;;19.80;99.90;;;;;;6157011;23;20025;-82
2021/08/09 09:27:31;;;;;;;126.63;91.68;;;19.90;99.90;;;;;;6157875;23;20127;-80
2021/08/09 09:29:58;;;;;;;145.38;103.53;;;19.80;99.90;;;;;;6157984;23;20444;-81
2021/08/09 09:32:25;;;;;;;122.00;97.22;;;19.80;99.90;;;;;;6184491;23;20036;-78
2021/08/09 09:34:56;;;;;;;132.18;100.65;;;19.90;99.90;;;;;;6183815;23;20021;-80
2021/08/09 09:37:41;;;;;;;121.68;96.93;;;20.00;99.90;;;;;;6193249;23;20563;-79
2021/08/09 09:40:10;;;;;;;161.25;112.57;;;20.20;99.90;;;;;;6183539;23;20020;-79
2021/08/09 09:42:40;;;;;;;109.20;87.03;;;20.50;99.90;;;;;;6157273;23;20421;-80
2021/08/09 09:45:29;;;;;;;90.40;70.63;;;20.60;99.90;;;;;;6157334;23;20017;-79
2021/08/09 09:48:09;;;;;;;119.07;88.85;;;20.60;99.90;;;;;;6194971;23;20336;-79
2021/08/09 09:50:41;;;;;;;180.55;140.80;;;20.40;99.90;;;;;;6158360;23;20047;-80
2021/08/09 09:53:22;;;;;;;182.32;151.18;;;20.40;99.90;;;;;;6131694;23;20096;-80
2021/08/09 09:55:50;;;;;;;120.22;90.80;;;20.70;99.90;;;;;;6184045;23;20431;-78
2021/08/09 09:58:25;;;;;;;173.45;125.28;;;20.70;99.90;;;;;;6157453;23;20033;-79
2021/08/09 10:00:52;;;;;;;;;;;20.90;99.90;;;;;;6167931;23;20084;-79
2021/08/09 10:03:17;;;;;;;152.43;111.40;;;20.80;99.90;;;;;;6157684;23;19923;-80
2021/08/09 10:05:44;;;;;;;129.23;91.72;;;20.80;99.90;;;;;;6157729;23;20021;-82
2021/08/09 10:08:15;;;;;;;169.60;121.80;;;21.00;99.90;;;;;;6156092;23;20151;-82
2021/08/09 10:10:48;;;;;;;134.65;103.53;;;21.10;99.90;;;;;;6157688;23;20013;-82
2021/08/09 10:13:21;;;;;;;147.93;112.13;;;21.10;99.90;;;;;;6154818;23;20028;-81
2021/08/09 10:15:51;;;;;;;215.93;156.90;;;21.00;99.90;;;;;;6183160;23;20456;-82
2021/08/09 10:18:29;;;;;;;200.77;163.25;;;21.00;99.90;;;;;;6167462;23;20044;-79
2021/08/09 10:20:57;;;;;;;198.55;153.30;;;21.00;99.90;;;;;;6194098;23;20103;-80
2021/08/09 10:23:39;;;;;;;127.45;97.25;;;21.10;99.90;;;;;;6192956;23;20024;-80
2021/08/09 10:26:07;;;;;;;190.15;158.32;;;21.30;99.90;;;;;;6157270;23;20519;-78
2021/08/09 10:29:09;;;;;;;148.90;117.13;;;21.20;99.90;;;;;;6184158;23;20017;-78
2021/08/09 10:31:40;;;;;;;145.02;104.18;;;21.30;99.90;;;;;;6040568;23;20078;-80
2021/08/09 10:34:29;;;;;;;200.05;159.45;;;21.50;99.90;;;;;;6038958;23;20047;-83
2021/08/09 10:37:08;;;;;;;187.70;143.48;;;21.60;99.90;;;;;;6064511;23;20451;-82
2021/08/09 10:39:45;;;;;;;161.68;120.55;;;21.70;99.90;;;;;;6073853;23;20070;-82
2021/08/09 10:42:34;;;;;;;170.18;133.38;;;21.80;99.90;;;;;;6041901;23;20023;-82
2021/08/09 10:45:01;;;;;;;151.80;116.78;;;22.00;99.90;;;;;;6074428;23;20022;-81
2021/08/09 10:47:45;;;;;;;162.20;121.75;;;22.10;99.90;;;;;;6070534;23;20518;-79
2021/08/09 10:50:41;;;;;;;250.23;182.13;;;22.20;99.90;;;;;;6041002;23;20015;-80
2021/08/09 10:53:26;;;;;;;163.25;132.18;;;22.40;99.90;;;;;;6063419;23;20023;-78
2021/08/09 10:55:56;;;;;;;184.77;139.35;;;22.40;99.90;;;;;;6050506;23;20059;-77
2021/08/09 10:58:41;;;;;;;92.43;74.75;;;22.40;99.90;;;;;;6064503;23;20081;-77
2021/08/09 11:01:16;;;;;;;207.70;152.38;;;22.40;99.90;;;;;;6067116;23;20015;-80
2021/08/09 11:04:03;;;;;;;148.20;114.95;;;21.90;99.90;;;;;;6063527;23;20030;-79
2021/08/09 11:06:53;;;;;;;478.30;342.95;;;21.40;99.90;;;;;;6102717;23;20021;-78
2021/08/09 11:09:31;;;;;;;126.45;103.28;;;20.90;99.90;;;;;;6156156;23;20500;-79
2021/08/09 11:12:26;;;;;;;192.18;150.90;;;20.40;99.90;;;;;;6167122;23;20063;-81
2021/08/09 11:15:02;;;;;;;138.23;109.72;;;19.90;99.90;;;;;;6183112;23;20151;-80
2021/08/09 11:17:30;;;;;;;198.30;154.10;;;19.60;99.90;;;;;;6157260;23;20020;-81
2021/08/09 11:20:20;;;;;;;133.73;103.20;;;19.50;99.90;;;;;;6132317;23;20013;-80
2021/08/09 11:22:57;;;;;;;113.80;94.53;;;19.40;99.90;;;;;;6192772;23;20009;-81
2021/08/09 11:25:47;;;;;;;143.43;115.55;;;19.40;99.90;;;;;;6189405;23;20020;-82
2021/08/09 11:28:18;;;;;;;91.13;74.50;;;19.50;99.90;;;;;;6156631;23;20039;-82
2021/08/09 11:30:48;;;;;;;105.90;84.97;;;19.50;99.90;;;;;;6156632;23;20024;-82
2021/08/09 11:33:31;;;;;;;140.10;109.43;;;19.70;99.90;;;;;;6156771;23;20384;-81
2021/08/09 11:36:00;;;;;;;170.95;151.02;;;19.80;99.90;;;;;;6157148;23;20757;-82
2021/08/09 11:38:28;;;;;;;145.13;122.40;;;20.00;99.90;;;;;;6155750;23;20040;-83
2021/08/09 11:41:00;;;;;;;133.65;102.35;;;20.20;99.90;;;;;;6155730;23;20013;-83
2021/08/09 11:43:28;;;;;;;183.98;139.55;;;20.40;99.90;;;;;;6155391;23;20052;-85
2021/08/09 11:46:02;;;;;;;143.35;113.50;;;20.50;99.90;;;;;;6156618;23;20021;-84
2021/08/09 11:48:31;;;;;;;114.60;87.13;;;20.60;99.90;;;;;;6193366;23;20020;-84
2021/08/09 11:51:00;;;;;;;200.07;153.90;;;20.70;99.90;;;;;;6156797;23;20032;-84
2021/08/09 11:53:26;;;;;;;188.15;140.43;;;21.00;99.90;;;;;;6130288;23;20080;-81
2021/08/09 11:56:14;;;;;;;189.23;149.68;;;21.20;99.90;;;;;;6166554;23;20017;-82
2021/08/09 11:58:43;;;;;;;150.88;115.57;;;21.30;99.90;;;;;;6185968;23;20013;-84
2021/08/09 12:01:19;;;;;;;160.77;122.65;;;21.60;99.90;;;;;;6167385;23;20009;-82
2021/08/09 12:04:02;;;;;;;237.55;181.82;;;21.90;99.90;;;;;;6165264;23;20393;-84
2021/08/09 12:06:28;;;;;;;189.50;139.23;;;22.30;99.90;;;;;;6155648;23;20021;-81
2021/08/09 12:08:55;;;;;;;237.98;188.45;;;22.40;99.90;;;;;;6165836;23;20037;-83
2021/08/09 12:11:26;;;;;;;177.38;127.82;;;22.60;99.90;;;;;;6156731;23;20350;-84
2021/08/09 12:14:14;;;;;;;194.98;140.95;;;22.70;99.90;;;;;;6156040;23;20033;-81
2021/08/09 12:16:59;;;;;;;198.57;157.50;;;22.70;99.90;;;;;;6156806;23;20009;-80
2021/08/09 12:19:36;;;;;;;238.38;176.40;;;22.70;99.90;;;;;;6155496;23;20425;-80
2021/08/09 12:22:15;;;;;;;192.48;140.63;;;22.80;99.90;;;;;;6156106;23;20047;-80
2021/08/09 12:25:02;;;;;;;184.20;136.93;;;22.80;99.90;;;;;;6156042;23;20084;-81
2021/08/09 12:27:29;;;;;;;151.38;113.80;;;22.70;99.90;;;;;;6190603;23;20472;-80
2021/08/09 12:30:01;;;;;;;179.90;133.95;;;22.70;99.90;;;;;;6165426;23;20350;-76
2021/08/09 12:32:28;;;;;;;180.90;127.15;;;22.70;99.90;;;;;;6166833;23;20028;-78